createdAt,value
2023-08-21T00:00:23.688Z,18.60
2023-08-21T00:04:49.262Z,18.80
2023-08-21T00:09:14.837Z,18.90
2023-08-21T00:13:40.348Z,19.00
2023-08-21T00:18:06.622Z,19.00
2023-08-21T00:22:31.813Z,18.90
2023-08-21T00:26:57.438Z,19.00
2023-08-21T00:31:23.074Z,19.00
2023-08-21T00:35:48.636Z,18.90
2023-08-21T00:40:14.757Z,18.90
2023-08-21T00:44:40.319Z,18.90
2023-08-21T00:49:05.907Z,18.90
2023-08-21T00:53:31.471Z,18.70
2023-08-21T00:57:57.187Z,18.70
2023-08-21T01:02:22.516Z,18.70
2023-08-21T01:06:50.065Z,18.70
2023-08-21T01:11:40.206Z,18.60
2023-08-21T01:16:08.395Z,18.50
2023-08-21T01:20:34.235Z,18.50
2023-08-21T01:24:59.290Z,18.50
2023-08-21T01:29:24.937Z,18.50
2023-08-21T01:33:54.663Z,18.50
2023-08-21T01:38:20.529Z,18.30
2023-08-21T01:42:45.608Z,18.20
2023-08-21T01:47:11.172Z,18.40
2023-08-21T01:51:38.372Z,18.30
2023-08-21T01:56:04.121Z,18.30
2023-08-21T02:00:29.411Z,18.30
2023-08-21T02:04:55.014Z,18.30
2023-08-21T02:09:20.180Z,18.30
2023-08-21T02:13:45.781Z,18.30
2023-08-21T02:18:11.249Z,18.20
2023-08-21T02:22:36.882Z,18.10
2023-08-21T02:27:02.236Z,18.20
2023-08-21T02:31:27.757Z,18.10
2023-08-21T02:35:53.222Z,17.90
2023-08-21T02:40:18.674Z,17.90
2023-08-21T02:44:44.076Z,17.90
2023-08-21T02:49:09.667Z,18.00
2023-08-21T02:53:35.059Z,18.00
2023-08-21T02:58:00.574Z,17.90
2023-08-21T03:02:26.250Z,17.90
2023-08-21T03:06:51.402Z,17.90
2023-08-21T03:11:16.920Z,17.80
2023-08-21T03:15:42.403Z,17.70
2023-08-21T03:20:08.620Z,17.70
2023-08-21T03:24:33.842Z,17.60
2023-08-21T03:28:59.433Z,17.70
2023-08-21T03:33:24.987Z,17.60
2023-08-21T03:37:50.555Z,17.50
2023-08-21T03:42:16.032Z,17.50
2023-08-21T03:46:41.659Z,17.50
2023-08-21T03:51:06.853Z,17.40
2023-08-21T03:55:32.320Z,17.40
2023-08-21T03:59:57.787Z,17.40
2023-08-21T04:04:23.317Z,17.40
2023-08-21T04:08:48.921Z,17.40
2023-08-21T04:13:14.521Z,17.50
2023-08-21T04:17:40.103Z,17.40
2023-08-21T04:22:05.562Z,17.50
2023-08-21T04:26:31.705Z,17.50
2023-08-21T04:30:58.883Z,17.50
2023-08-21T04:35:24.437Z,17.60
2023-08-21T04:39:54.033Z,17.50
2023-08-21T04:44:19.945Z,17.40
2023-08-21T04:48:45.493Z,17.30
2023-08-21T04:53:10.938Z,17.30
2023-08-21T04:57:36.309Z,17.10
2023-08-21T05:02:01.693Z,17.30
2023-08-21T05:06:27.277Z,17.10
2023-08-21T05:10:57.124Z,17.00
2023-08-21T05:15:22.528Z,17.00
2023-08-21T05:19:48.178Z,17.10
2023-08-21T05:24:13.841Z,17.30
2023-08-21T05:28:39.525Z,17.40
2023-08-21T05:33:05.508Z,17.50
2023-08-21T05:37:31.435Z,17.60
2023-08-21T05:41:56.860Z,17.70
2023-08-21T05:46:22.551Z,17.70
2023-08-21T05:50:52.491Z,17.90
2023-08-21T05:55:19.447Z,18.20
2023-08-21T05:59:46.555Z,18.40
2023-08-21T06:04:12.006Z,18.50
2023-08-21T06:08:37.250Z,18.30
2023-08-21T06:13:02.805Z,18.40
2023-08-21T06:17:28.769Z,18.50
2023-08-21T06:21:55.331Z,18.70
2023-08-21T06:26:20.903Z,18.90
2023-08-21T06:30:46.573Z,19.00
2023-08-21T06:35:12.017Z,19.10
2023-08-21T06:39:37.423Z,19.20
2023-08-21T06:44:02.810Z,19.30
2023-08-21T06:48:28.302Z,19.40
2023-08-21T06:52:53.826Z,19.60
2023-08-21T06:57:19.306Z,19.90
2023-08-21T07:01:44.835Z,20.20
2023-08-21T07:06:10.467Z,20.30
2023-08-21T07:10:39.440Z,20.50
2023-08-21T07:15:05.295Z,20.80
2023-08-21T07:19:30.438Z,20.90
2023-08-21T07:23:55.870Z,20.90
2023-08-21T07:28:21.333Z,21.00
2023-08-21T07:32:47.688Z,21.00
2023-08-21T07:37:12.980Z,21.20
2023-08-21T07:41:38.684Z,21.30
2023-08-21T07:46:08.199Z,21.30
2023-08-21T07:50:33.472Z,21.40
2023-08-21T07:55:00.405Z,21.50
2023-08-21T07:59:26.289Z,21.60
2023-08-21T08:03:51.646Z,21.70
2023-08-21T08:08:20.072Z,22.00
2023-08-21T08:12:45.611Z,22.20
2023-08-21T08:17:11.103Z,22.30
2023-08-21T08:21:37.404Z,22.30
2023-08-21T08:26:03.303Z,22.20
2023-08-21T08:30:28.729Z,22.10
2023-08-21T08:34:54.398Z,22.20
2023-08-21T08:39:19.971Z,22.50
2023-08-21T08:43:46.562Z,23.10
2023-08-21T08:48:13.796Z,23.70
2023-08-21T08:52:41.360Z,23.90
2023-08-21T08:57:06.941Z,24.20
2023-08-21T09:01:32.546Z,24.10
2023-08-21T09:06:01.436Z,24.10
2023-08-21T09:10:26.887Z,24.30
2023-08-21T09:14:52.216Z,24.80
2023-08-21T09:19:22.565Z,25.10
2023-08-21T09:23:49.395Z,24.90
2023-08-21T09:28:15.481Z,25.00
2023-08-21T09:32:55.306Z,25.20
2023-08-21T09:37:20.513Z,25.10
2023-08-21T09:41:56.939Z,25.40
2023-08-21T09:46:27.138Z,25.80
2023-08-21T09:50:53.020Z,25.70
2023-08-21T09:55:19.348Z,25.70
2023-08-21T09:59:46.951Z,25.70
2023-08-21T10:04:13.084Z,25.90
2023-08-21T10:08:43.607Z,26.30
2023-08-21T10:13:09.584Z,26.60
2023-08-21T10:17:35.171Z,26.80
2023-08-21T10:22:00.990Z,26.90
2023-08-21T10:31:41.179Z,27.10
2023-08-21T10:36:06.703Z,27.20
2023-08-21T10:40:32.197Z,27.20
2023-08-21T10:45:00.514Z,27.40
2023-08-21T10:49:26.311Z,27.60
2023-08-21T10:53:51.701Z,27.70
2023-08-21T10:58:17.149Z,27.80
2023-08-21T11:02:47.813Z,28.10
2023-08-21T11:07:13.912Z,28.20
2023-08-21T11:11:39.521Z,28.30
2023-08-21T11:16:07.151Z,28.50
2023-08-21T11:20:34.900Z,28.80
2023-08-21T11:25:00.387Z,28.80
2023-08-21T11:29:26.940Z,28.20
2023-08-21T11:33:52.208Z,28.00
2023-08-21T11:38:22.598Z,28.10
2023-08-21T11:42:52.588Z,28.50
2023-08-21T11:47:20.260Z,28.80
2023-08-21T11:51:47.539Z,28.50
2023-08-21T11:56:15.338Z,28.40
2023-08-21T12:00:41.211Z,28.10
2023-08-21T12:05:07.990Z,28.40
2023-08-21T12:09:33.861Z,29.20
2023-08-21T12:13:59.097Z,29.90
2023-08-21T12:18:25.085Z,30.40
2023-08-21T12:22:50.804Z,30.60
2023-08-21T12:27:17.549Z,30.60
2023-08-21T12:31:43.079Z,30.80
2023-08-21T12:36:11.329Z,30.60
2023-08-21T12:40:36.539Z,30.70
2023-08-21T12:45:01.963Z,29.80
2023-08-21T12:49:27.694Z,28.60
2023-08-21T12:53:52.895Z,27.80
2023-08-21T12:58:19.371Z,27.20
2023-08-21T13:02:44.977Z,26.70
2023-08-21T13:07:10.381Z,26.60
2023-08-21T13:11:35.727Z,26.80
2023-08-21T13:16:01.451Z,27.10
2023-08-21T13:20:26.690Z,28.20
2023-08-21T13:24:53.262Z,28.80
2023-08-21T13:29:18.850Z,29.10
2023-08-21T13:33:51.031Z,28.80
2023-08-21T13:38:17.233Z,28.00
2023-08-21T13:42:44.029Z,27.40
2023-08-21T13:47:09.398Z,27.50
2023-08-21T13:51:34.977Z,27.80
2023-08-21T13:56:00.583Z,27.70
2023-08-21T14:00:26.224Z,27.70
2023-08-21T14:04:51.826Z,27.80
2023-08-21T14:09:17.316Z,27.40
2023-08-21T14:13:42.856Z,27.10
2023-08-21T14:18:08.718Z,27.40
2023-08-21T14:22:34.530Z,27.90
2023-08-21T14:27:00.110Z,27.70
2023-08-21T14:31:25.484Z,27.80
2023-08-21T14:35:51.000Z,27.90
2023-08-21T14:40:16.852Z,28.20
2023-08-21T14:44:42.136Z,28.40
2023-08-21T14:49:07.641Z,28.60
2023-08-21T14:53:33.198Z,28.60
2023-08-21T14:57:58.756Z,28.60
2023-08-21T15:02:24.344Z,28.60
2023-08-21T15:06:49.849Z,28.40
2023-08-21T15:11:15.335Z,28.40
2023-08-21T15:15:40.857Z,28.20
2023-08-21T15:20:08.056Z,28.10
2023-08-21T15:24:33.313Z,27.90
2023-08-21T15:28:58.999Z,28.00
2023-08-21T15:33:24.576Z,27.80
2023-08-21T15:37:50.851Z,27.70
2023-08-21T15:42:16.264Z,27.40
2023-08-21T15:46:41.820Z,27.30
2023-08-21T15:51:07.410Z,27.10
2023-08-21T15:55:32.937Z,27.00
2023-08-21T15:59:58.632Z,26.80
2023-08-21T16:04:24.299Z,26.60
2023-08-21T16:08:49.747Z,26.40
2023-08-21T16:13:15.459Z,26.20
2023-08-21T16:17:40.865Z,25.90
2023-08-21T16:22:06.594Z,25.80
2023-08-21T16:26:32.693Z,25.70
2023-08-21T16:30:57.982Z,25.60
2023-08-21T16:35:24.588Z,25.60
2023-08-21T16:39:49.990Z,25.50
2023-08-21T16:44:18.326Z,25.50
2023-08-21T16:48:43.697Z,25.40
2023-08-21T16:53:22.516Z,25.40
2023-08-21T16:57:48.779Z,25.30
2023-08-21T17:02:14.603Z,25.20
2023-08-21T17:06:39.854Z,25.10
2023-08-21T17:11:05.369Z,25.10
2023-08-21T17:15:31.133Z,25.10
2023-08-21T17:19:56.591Z,25.00
2023-08-21T17:24:22.060Z,24.90
2023-08-21T17:28:48.903Z,24.90
2023-08-21T17:33:14.284Z,24.80
2023-08-21T17:37:39.794Z,24.70
2023-08-21T17:42:08.590Z,24.60
2023-08-21T17:46:34.066Z,24.40
2023-08-21T17:51:00.508Z,24.30
2023-08-21T17:55:25.931Z,24.20
2023-08-21T17:59:51.437Z,23.90
2023-08-21T18:04:17.047Z,23.90
2023-08-21T18:08:42.526Z,23.80
2023-08-21T18:13:08.043Z,23.60
2023-08-21T18:17:33.546Z,23.50
2023-08-21T18:21:58.969Z,23.50
2023-08-21T18:26:25.659Z,23.40
2023-08-21T18:30:52.724Z,23.30
2023-08-21T18:35:18.003Z,23.10
2023-08-21T18:39:43.438Z,23.00
2023-08-21T18:44:08.989Z,22.70
2023-08-21T18:48:34.490Z,22.70
2023-08-21T18:53:00.023Z,22.70
2023-08-21T18:57:25.411Z,22.50
2023-08-21T19:01:50.928Z,22.40
2023-08-21T19:06:16.459Z,22.20
2023-08-21T19:10:43.769Z,22.10
2023-08-21T19:15:11.750Z,22.00
2023-08-21T19:19:37.378Z,22.00
2023-08-21T19:24:03.071Z,21.90
2023-08-21T19:28:28.671Z,21.80
2023-08-21T19:32:55.232Z,21.70
2023-08-21T19:37:22.928Z,21.60
2023-08-21T19:41:48.678Z,21.50
2023-08-21T19:46:14.633Z,21.40
2023-08-21T19:50:39.861Z,21.30
2023-08-21T19:55:05.665Z,21.20
2023-08-21T19:59:31.684Z,21.10
2023-08-21T20:03:57.273Z,21.00
2023-08-21T20:08:24.630Z,20.90
2023-08-21T20:12:51.133Z,20.80
2023-08-21T20:17:16.787Z,20.80
2023-08-21T20:21:42.247Z,20.50
2023-08-21T20:26:08.020Z,20.40
2023-08-21T20:30:34.046Z,20.40
2023-08-21T20:34:59.345Z,20.30
2023-08-21T20:39:24.995Z,20.30
2023-08-21T20:43:50.473Z,20.20
2023-08-21T20:48:16.686Z,20.10
2023-08-21T20:52:42.338Z,20.00
2023-08-21T20:57:07.596Z,20.00
2023-08-21T21:01:33.120Z,19.90
2023-08-21T21:05:58.602Z,19.80
2023-08-21T21:10:24.076Z,19.70
2023-08-21T21:14:49.509Z,19.60
2023-08-21T21:19:15.055Z,19.50
2023-08-21T21:23:40.579Z,19.40
2023-08-21T21:28:06.425Z,19.40
2023-08-21T21:32:31.940Z,19.30
2023-08-21T21:36:57.458Z,19.30
2023-08-21T21:41:23.018Z,19.20
2023-08-21T21:45:57.847Z,19.00
2023-08-21T21:50:23.243Z,18.80
2023-08-21T21:54:49.281Z,18.80
2023-08-21T21:59:14.839Z,18.80
2023-08-21T22:03:40.419Z,18.70
2023-08-21T22:08:06.246Z,18.70
2023-08-21T22:12:31.721Z,18.70
2023-08-21T22:16:57.365Z,18.70
2023-08-21T22:21:22.852Z,18.70
2023-08-21T22:25:48.528Z,18.60
2023-08-21T22:30:14.274Z,18.60
2023-08-21T22:34:39.768Z,18.50
2023-08-21T22:39:05.608Z,18.50
2023-08-21T22:43:30.973Z,18.50
2023-08-21T22:47:56.569Z,18.50
2023-08-21T22:52:22.145Z,18.50
2023-08-21T22:56:47.786Z,18.50
2023-08-21T23:01:13.591Z,18.50
2023-08-21T23:05:39.128Z,18.40
2023-08-21T23:10:05.480Z,18.40
2023-08-21T23:14:34.612Z,18.40
2023-08-21T23:19:03.448Z,18.30
2023-08-21T23:23:29.408Z,18.40
2023-08-21T23:27:54.824Z,18.40
2023-08-21T23:32:20.890Z,18.40
2023-08-21T23:36:46.452Z,18.40
2023-08-21T23:41:12.076Z,18.40
2023-08-21T23:45:37.400Z,18.40
2023-08-21T23:50:06.148Z,18.40
2023-08-21T23:54:31.537Z,18.30
2023-08-21T23:58:58.535Z,18.40
